Time;durP1;ratioP1;P1;durP2;ratioP2;P2;SDS_P1;SDS_P2;PMS_P1;PMS_P2;Temp;Humidity;BMP_temperature;BMP_pressure;BME280_temperature;BME280_humidity;BME280_pressure;Samples;Min_cycle;Max_cycle;Signal;HPM_P1;HPM_P2
2022/02/06 00:00:08;;;;;;;1.58;0.60;;;22.30;33.30;;;;;;5036687;28;20057;-57
2022/02/06 00:02:37;;;;;;;0.82;0.35;;;22.40;33.40;;;;;;5037088;28;20044;-57
2022/02/06 00:05:04;;;;;;;1.42;0.60;;;22.40;33.40;;;;;;5046354;28;20021;-56
2022/02/06 00:07:30;;;;;;;1.63;0.50;;;22.30;33.40;;;;;;5054892;28;20036;-58
2022/02/06 00:09:57;;;;;;;1.20;0.50;;;22.30;33.40;;;;;;5049462;28;20060;-57
2022/02/06 00:12:23;;;;;;;1.42;0.75;;;22.30;33.40;;;;;;5046636;28;20426;-56
2022/02/06 00:14:49;;;;;;;1.27;0.50;;;22.30;33.50;;;;;;5047031;28;20128;-59
2022/02/06 00:17:15;;;;;;;1.77;0.60;;;22.30;33.50;;;;;;5039573;28;20098;-51
2022/02/06 00:19:43;;;;;;;0.82;0.40;;;22.30;33.50;;;;;;5054258;28;20788;-52
2022/02/06 00:22:13;;;;;;;1.83;0.60;;;22.30;33.50;;;;;;5047576;28;20184;-58
2022/02/06 00:27:10;;;;;;;1.15;0.60;;;22.30;33.60;;;;;;5048048;28;20075;-51
2022/02/06 00:30:00;;;;;;;1.08;0.43;;;22.30;33.60;;;;;;5039284;28;20425;-52
2022/02/06 00:32:34;;;;;;;1.40;0.70;;;22.30;33.60;;;;;;5053042;28;20021;-54
2022/02/06 00:40:34;;;;;;;0.82;0.52;;;22.20;33.70;;;;;;5050390;28;20108;-56
2022/02/06 00:42:59;;;;;;;0.73;0.50;;;22.20;33.70;;;;;;5052876;28;20110;-49
2022/02/06 00:45:25;;;;;;;2.17;0.55;;;22.20;33.70;;;;;;5045466;28;20025;-56
2022/02/06 00:47:51;;;;;;;0.57;0.40;;;22.20;33.70;;;;;;5051177;28;20029;-56
2022/02/06 00:50:17;;;;;;;1.20;0.50;;;22.20;33.70;;;;;;5052149;28;20017;-59
2022/02/06 00:52:53;;;;;;;1.00;0.47;;;22.20;33.80;;;;;;5052670;28;20093;-52
2022/02/06 00:55:19;;;;;;;0.85;0.40;;;22.20;33.80;;;;;;5051854;28;20057;-55
2022/02/06 00:57:45;;;;;;;1.10;0.50;;;22.20;33.80;;;;;;5052403;28;20075;-58
2022/02/06 01:00:11;;;;;;;1.08;0.60;;;22.20;33.80;;;;;;5037849;28;20022;-53
2022/02/06 01:02:37;;;;;;;1.27;0.60;;;22.10;33.80;;;;;;5044699;28;20054;-62
2022/02/06 01:05:02;;;;;;;0.90;0.50;;;22.20;33.90;;;;;;5041226;28;20025;-57
2022/02/06 01:07:28;;;;;;;1.83;0.70;;;22.10;33.90;;;;;;5035699;28;20033;-58
2022/02/06 01:09:54;;;;;;;0.70;0.45;;;22.20;34.00;;;;;;5035641;28;20052;-59
2022/02/06 01:12:24;;;;;;;1.85;0.70;;;22.20;34.00;;;;;;5035814;28;20391;-56
2022/02/06 01:15:05;;;;;;;1.45;0.60;;;22.10;34.00;;;;;;5038626;28;20025;-57
2022/02/06 01:17:37;;;;;;;1.98;0.80;;;22.10;34.00;;;;;;5042906;28;20021;-62
2022/02/06 01:20:11;;;;;;;1.60;0.65;;;22.10;34.00;;;;;;5052388;28;20028;-54
2022/02/06 01:22:46;;;;;;;1.08;0.40;;;22.10;34.00;;;;;;5051539;28;20028;-53
2022/02/06 01:25:17;;;;;;;1.95;0.50;;;22.10;34.10;;;;;;5050231;28;20025;-53
2022/02/06 01:27:51;;;;;;;1.23;0.55;;;22.10;34.10;;;;;;5053317;28;20320;-58
2022/02/06 01:30:24;;;;;;;1.77;0.70;;;22.10;34.10;;;;;;5040551;28;20056;-57
2022/02/06 01:32:58;;;;;;;1.63;0.60;;;22.10;34.10;;;;;;5050883;28;20041;-56
2022/02/06 01:36:13;;;;;;;;;;;22.10;34.20;;;;;;5052136;28;20087;-56
2022/02/06 01:38:28;;;;;;;0.73;0.40;;;22.00;34.10;;;;;;5029279;28;19916;-58
2022/02/06 01:41:04;;;;;;;0.50;0.40;;;22.00;34.20;;;;;;5043057;28;20492;-55
2022/02/06 01:43:53;;;;;;;1.45;0.60;;;22.00;34.20;;;;;;5035685;28;20037;-58
2022/02/06 02:03:07;;;;;;;1.08;0.52;;;21.90;34.30;;;;;;5038194;28;20398;-54
2022/02/06 02:06:13;;;;;;;1.73;0.60;;;21.90;34.30;;;;;;5050402;28;20527;-58
2022/02/06 02:26:57;;;;;;;1.45;0.40;;;21.80;34.50;;;;;;5049608;28;20094;-57
2022/02/06 02:48:00;;;;;;;1.30;0.40;;;21.80;34.70;;;;;;5041436;28;20451;-52
2022/02/06 02:50:26;;;;;;;1.05;0.47;;;21.70;34.70;;;;;;5047775;28;20101;-52
2022/02/06 03:02:44;;;;;;;0.70;0.50;;;21.70;34.80;;;;;;5049891;28;20063;-56
2022/02/06 03:05:10;;;;;;;0.75;0.43;;;21.70;34.80;;;;;;5047603;28;20099;-52
2022/02/06 03:07:36;;;;;;;0.52;0.30;;;21.70;34.80;;;;;;5035658;28;20029;-59
2022/02/06 03:10:03;;;;;;;0.65;0.30;;;21.80;34.90;;;;;;5036062;28;20512;-49
2022/02/06 03:12:31;;;;;;;1.92;0.50;;;21.80;34.90;;;;;;5042623;28;20375;-51
2022/02/06 03:15:06;;;;;;;1.02;0.50;;;21.80;34.90;;;;;;5045545;28;20021;-58
2022/02/06 03:17:35;;;;;;;1.20;0.50;;;21.70;34.90;;;;;;5046440;28;20155;-54
2022/02/06 03:20:08;;;;;;;1.02;0.40;;;21.70;34.90;;;;;;5038027;28;20112;-54
2022/02/06 03:22:46;;;;;;;1.00;0.60;;;21.80;35.00;;;;;;5050450;28;20040;-53
2022/02/06 03:25:18;;;;;;;1.30;0.60;;;21.70;35.00;;;;;;5053440;28;20114;-56
2022/02/06 03:27:44;;;;;;;1.02;0.50;;;21.70;35.00;;;;;;5049944;28;20448;-50
2022/02/06 03:30:10;;;;;;;0.68;0.30;;;21.70;35.00;;;;;;5037895;28;20059;-58
2022/02/06 03:32:37;;;;;;;1.58;0.40;;;21.70;35.00;;;;;;5037407;28;20025;-58
2022/02/06 03:35:03;;;;;;;0.85;0.32;;;21.70;35.00;;;;;;5041217;28;20022;-54
2022/02/06 03:37:29;;;;;;;0.88;0.40;;;21.70;35.10;;;;;;5038220;28;20056;-56
2022/02/06 03:39:56;;;;;;;1.08;0.30;;;21.70;35.10;;;;;;5037397;28;20053;-57
2022/02/06 03:42:24;;;;;;;1.15;0.50;;;21.70;35.10;;;;;;5037394;28;20037;-52
2022/02/06 03:44:58;;;;;;;0.82;0.43;;;21.70;35.20;;;;;;5051372;28;20025;-54
2022/02/06 03:47:26;;;;;;;0.65;0.32;;;21.60;35.10;;;;;;5050561;28;20026;-57
2022/02/06 03:49:57;;;;;;;1.15;0.40;;;21.60;35.10;;;;;;5050236;28;20412;-58
2022/02/06 03:52:31;;;;;;;1.38;0.57;;;21.70;35.20;;;;;;5055183;28;20029;-53
2022/02/06 03:54:57;;;;;;;0.75;0.30;;;21.70;35.20;;;;;;5053292;28;20103;-58
2022/02/06 03:57:23;;;;;;;0.70;0.35;;;21.60;35.20;;;;;;5048383;28;20464;-58
2022/02/06 03:59:48;;;;;;;1.40;0.40;;;21.60;35.20;;;;;;5038260;28;20033;-59
2022/02/06 04:02:14;;;;;;;0.82;0.25;;;21.60;35.20;;;;;;5037885;28;20112;-57
2022/02/06 04:04:40;;;;;;;0.47;0.38;;;21.60;35.20;;;;;;5036723;28;20029;-55
2022/02/06 04:07:08;;;;;;;0.63;0.40;;;21.60;35.30;;;;;;5053523;28;20024;-58
2022/02/06 04:09:53;;;;;;;0.77;0.32;;;21.60;35.30;;;;;;5044747;28;20115;-58
2022/02/06 04:12:21;;;;;;;1.52;0.68;;;21.60;35.30;;;;;;5043441;28;20040;-53
2022/02/06 04:17:22;;;;;;;1.52;0.47;;;21.60;35.30;;;;;;5045394;28;20340;-60
2022/02/06 04:19:52;;;;;;;0.63;0.35;;;21.60;35.40;;;;;;5019777;28;20018;-53
2022/02/06 04:22:20;;;;;;;0.75;0.50;;;21.60;35.40;;;;;;5045152;28;20033;-57
2022/02/06 04:24:46;;;;;;;0.70;0.30;;;21.60;35.40;;;;;;5053896;28;20028;-53
2022/02/06 04:27:12;;;;;;;0.30;0.20;;;21.50;35.40;;;;;;5042256;28;20052;-54
2022/02/06 04:29:38;;;;;;;0.60;0.40;;;21.60;35.40;;;;;;5035427;28;20075;-52
2022/02/06 04:32:05;;;;;;;1.50;0.52;;;21.50;35.40;;;;;;5038748;28;20082;-60
2022/02/06 04:34:31;;;;;;;0.93;0.45;;;21.50;35.40;;;;;;5037406;28;20025;-61
2022/02/06 04:50:33;;;;;;;0.70;0.30;;;21.50;35.60;;;;;;5037385;28;20036;-53
2022/02/06 05:30:24;;;;;;;0.70;0.40;;;21.40;35.90;;;;;;5036647;28;20399;-54
2022/02/06 05:32:59;;;;;;;0.47;0.30;;;21.40;35.90;;;;;;5043604;28;20142;-52
2022/02/06 05:35:25;;;;;;;0.50;0.30;;;21.40;36.00;;;;;;5050734;28;20044;-60
2022/02/06 05:37:51;;;;;;;1.08;0.22;;;21.40;36.00;;;;;;5047641;28;20025;-57
2022/02/06 05:40:17;;;;;;;0.50;0.40;;;21.30;35.90;;;;;;5051688;28;20508;-56
2022/02/06 05:42:43;;;;;;;1.13;0.38;;;21.40;36.00;;;;;;5052885;28;20106;-58
2022/02/06 05:45:10;;;;;;;1.05;0.50;;;21.40;36.00;;;;;;5045234;28;20029;-56
2022/02/06 05:47:36;;;;;;;0.90;0.50;;;21.40;36.10;;;;;;5036594;28;20024;-58
2022/02/06 05:50:04;;;;;;;1.02;0.50;;;21.40;36.10;;;;;;5036601;28;20437;-51
2022/02/06 05:52:31;;;;;;;0.65;0.30;;;21.40;36.10;;;;;;5035499;28;20101;-54
2022/02/06 05:54:57;;;;;;;1.25;0.40;;;21.40;36.10;;;;;;5036323;28;20425;-51
2022/02/06 05:57:24;;;;;;;0.50;0.30;;;21.30;36.10;;;;;;5036281;28;20368;-61
2022/02/06 05:59:50;;;;;;;0.65;0.30;;;21.40;36.20;;;;;;5018318;28;20333;-52
2022/02/06 06:02:17;;;;;;;1.02;0.60;;;21.30;36.10;;;;;;5036471;28;20025;-52
2022/02/06 06:04:43;;;;;;;0.30;0.20;;;21.40;36.20;;;;;;5036921;28;20035;-56
2022/02/06 06:07:09;;;;;;;1.05;0.40;;;21.30;36.20;;;;;;5050088;28;20028;-54
2022/02/06 06:09:34;;;;;;;1.33;0.32;;;21.30;36.20;;;;;;5052562;28;20017;-54
2022/02/06 06:12:00;;;;;;;0.73;0.30;;;21.30;36.20;;;;;;5048844;28;20025;-58
2022/02/06 06:14:29;;;;;;;0.93;0.30;;;21.30;36.20;;;;;;5039841;28;20105;-54
2022/02/06 06:16:58;;;;;;;0.50;0.28;;;21.30;36.30;;;;;;5021916;28;20025;-59
2022/02/06 06:19:24;;;;;;;0.63;0.38;;;21.30;36.30;;;;;;5034913;28;20018;-56
2022/02/06 06:21:56;;;;;;;0.57;0.38;;;21.30;36.30;;;;;;5046699;28;20021;-58
2022/02/06 06:24:23;;;;;;;0.90;0.40;;;21.30;37.00;;;;;;5052033;28;20037;-55
2022/02/06 06:26:50;;;;;;;0.75;0.50;;;21.30;36.40;;;;;;5048440;28;20116;-56
2022/02/06 06:29:16;;;;;;;1.05;0.38;;;21.30;36.40;;;;;;5052339;28;20483;-57
2022/02/06 06:31:42;;;;;;;0.35;0.30;;;21.30;36.40;;;;;;5038159;28;20057;-61
2022/02/06 06:34:08;;;;;;;1.10;0.32;;;21.30;36.40;;;;;;5051048;28;20029;-55
2022/02/06 06:36:35;;;;;;;0.43;0.40;;;21.30;36.40;;;;;;5051387;28;20025;-50
2022/02/06 06:39:03;;;;;;;1.17;0.40;;;21.20;36.40;;;;;;5051915;28;20111;-52
2022/02/06 06:41:29;;;;;;;0.98;0.30;;;21.30;36.50;;;;;;5037935;28;20025;-61
2022/02/06 06:43:55;;;;;;;0.43;0.30;;;21.30;36.50;;;;;;5048718;28;20041;-59
2022/02/06 06:46:21;;;;;;;1.05;0.32;;;21.30;36.50;;;;;;5051739;28;20084;-51
2022/02/06 06:48:46;;;;;;;1.42;0.40;;;21.20;36.50;;;;;;5036944;28;20033;-58
2022/02/06 06:51:12;;;;;;;0.65;0.30;;;21.20;36.50;;;;;;5035469;28;20057;-58
2022/02/06 06:53:42;;;;;;;1.00;0.30;;;21.20;36.50;;;;;;5043403;28;20045;-53
2022/02/06 06:56:16;;;;;;;0.65;0.30;;;21.30;36.60;;;;;;5045695;28;20108;-55
2022/02/06 06:58:46;;;;;;;0.80;0.28;;;21.20;36.50;;;;;;5040445;28;20040;-58
2022/02/06 07:03:50;;;;;;;1.88;0.30;;;21.20;36.60;;;;;;5042176;28;20033;-59
2022/02/06 07:06:16;;;;;;;0.60;0.30;;;21.20;36.60;;;;;;5021539;28;20335;-56
2022/02/06 07:08:41;;;;;;;0.50;0.32;;;21.20;36.70;;;;;;5051326;28;20016;-61
2022/02/06 07:11:07;;;;;;;1.02;0.40;;;21.20;36.70;;;;;;5043584;28;20424;-57
2022/02/06 07:13:33;;;;;;;0.55;0.28;;;21.20;36.70;;;;;;5040395;28;20021;-58
2022/02/06 07:15:59;;;;;;;0.68;0.30;;;21.20;36.80;;;;;;5040122;28;20074;-54
2022/02/06 07:18:25;;;;;;;1.70;0.35;;;21.20;36.80;;;;;;5042755;28;20432;-57
2022/02/06 07:20:51;;;;;;;0.50;0.30;;;21.20;37.50;;;;;;5047884;28;20025;-58
2022/02/06 07:23:17;;;;;;;0.38;0.20;;;21.20;36.80;;;;;;5044055;28;20041;-58
2022/02/06 07:25:48;;;;;;;0.43;0.25;;;21.20;36.80;;;;;;5039178;28;20463;-58
2022/02/06 07:28:16;;;;;;;0.60;0.30;;;21.20;36.90;;;;;;5030367;28;20340;-58
2022/02/06 07:30:43;;;;;;;1.42;0.40;;;21.20;36.90;;;;;;5039360;28;20425;-60
2022/02/06 07:33:12;;;;;;;0.45;0.28;;;21.20;36.90;;;;;;5046061;28;20033;-60
2022/02/06 07:35:38;;;;;;;0.47;0.20;;;21.20;36.90;;;;;;5040976;28;20706;-58
2022/02/06 07:38:04;;;;;;;2.45;0.50;;;21.20;36.90;;;;;;5047308;28;20033;-59
2022/02/06 07:40:30;;;;;;;0.80;0.40;;;21.20;36.90;;;;;;5052701;28;20428;-55
2022/02/06 07:42:56;;;;;;;0.95;0.40;;;21.20;36.90;;;;;;5049971;28;20041;-59
2022/02/06 07:45:31;;;;;;;1.58;0.35;;;21.20;37.00;;;;;;5040815;28;20035;-57
2022/02/06 07:47:59;;;;;;;3.28;0.40;;;21.20;37.10;;;;;;5036913;28;20021;-60
2022/02/06 07:50:29;;;;;;;1.00;0.40;;;21.20;37.10;;;;;;5045789;28;20475;-59
2022/02/06 07:52:55;;;;;;;0.60;0.30;;;21.30;37.20;;;;;;5035356;28;20425;-61
2022/02/06 07:55:22;;;;;;;1.45;0.40;;;21.40;37.20;;;;;;5044967;28;20030;-59
2022/02/06 07:57:48;;;;;;;1.65;0.50;;;21.40;37.10;;;;;;5015870;28;20046;-59
2022/02/06 08:00:16;;;;;;;0.93;0.30;;;21.50;37.10;;;;;;5030768;28;20083;-60
2022/02/06 08:02:42;;;;;;;0.95;0.40;;;21.60;37.20;;;;;;5031785;28;20064;-57
2022/02/06 08:05:10;;;;;;;0.50;0.28;;;21.70;37.10;;;;;;5019135;28;20335;-58
2022/02/06 08:07:38;;;;;;;0.80;0.35;;;21.80;37.10;;;;;;5023364;28;20025;-57
2022/02/06 08:10:08;;;;;;;0.52;0.30;;;21.90;37.10;;;;;;5022425;28;20029;-58
2022/02/06 08:12:50;;;;;;;1.10;0.45;;;22.00;37.00;;;;;;5029386;28;20053;-59
2022/02/06 08:15:20;;;;;;;1.55;0.63;;;22.10;37.00;;;;;;5031506;28;20033;-59
2022/02/06 08:17:51;;;;;;;1.35;0.40;;;22.20;37.00;;;;;;5033575;28;20088;-59
2022/02/06 08:20:22;;;;;;;0.93;0.38;;;22.30;37.00;;;;;;5029623;28;20096;-61
2022/02/06 08:22:52;;;;;;;1.08;0.45;;;22.40;36.90;;;;;;5025462;28;20322;-60
2022/02/06 08:25:24;;;;;;;1.30;0.50;;;22.50;37.00;;;;;;5036035;28;20018;-58
2022/02/06 08:27:55;;;;;;;0.73;0.32;;;22.60;36.90;;;;;;5033963;28;20034;-62
2022/02/06 08:30:22;;;;;;;1.23;0.40;;;22.60;36.90;;;;;;5031496;28;20032;-60
2022/02/06 08:32:50;;;;;;;2.00;0.70;;;22.70;36.90;;;;;;5027931;28;20029;-56
2022/02/06 08:35:18;;;;;;;1.02;0.40;;;22.80;36.90;;;;;;5035950;28;20025;-60
2022/02/06 08:37:44;;;;;;;1.30;0.50;;;22.80;36.90;;;;;;5035481;28;20037;-60
2022/02/06 08:40:16;;;;;;;0.52;0.30;;;22.90;36.90;;;;;;5020943;28;20116;-57
2022/02/06 08:42:44;;;;;;;1.38;0.45;;;23.00;36.80;;;;;;5026374;28;20437;-58
2022/02/06 08:45:16;;;;;;;1.50;0.30;;;23.10;36.80;;;;;;5034388;28;20072;-57
2022/02/06 08:47:46;;;;;;;1.88;0.38;;;23.10;36.70;;;;;;5033890;28;20104;-61
2022/02/06 08:50:16;;;;;;;1.63;0.45;;;23.20;36.70;;;;;;5034625;28;20088;-58
2022/02/06 08:52:45;;;;;;;1.00;0.60;;;23.30;36.60;;;;;;5030654;28;20116;-57
2022/02/06 08:55:18;;;;;;;0.55;0.32;;;23.40;36.60;;;;;;5031043;28;20048;-60
2022/02/06 08:57:47;;;;;;;0.73;0.40;;;23.40;36.50;;;;;;5034315;28;20045;-60
2022/02/06 09:00:21;;;;;;;2.00;0.45;;;23.50;36.50;;;;;;5035561;28;20098;-61
2022/02/06 09:02:49;;;;;;;0.55;0.25;;;23.50;36.40;;;;;;5028058;28;20084;-57
2022/02/06 09:05:19;;;;;;;0.20;0.20;;;23.60;36.40;;;;;;5034237;28;20021;-59
2022/02/06 09:07:46;;;;;;;0.60;0.30;;;23.60;36.30;;;;;;5025927;28;20322;-55
2022/02/06 09:10:15;;;;;;;0.40;0.28;;;23.60;36.20;;;;;;5032449;28;20025;-59
2022/02/06 09:12:54;;;;;;;0.47;0.47;;;23.70;35.70;;;;;;5021414;28;20032;-62
2022/02/06 09:15:22;;;;;;;1.70;0.47;;;23.70;36.10;;;;;;5014693;28;20069;-61
2022/02/06 09:17:50;;;;;;;0.75;0.47;;;23.90;36.20;;;;;;5015360;28;20465;-64
2022/02/06 09:20:17;;;;;;;4.80;0.50;;;23.90;36.10;;;;;;5021510;28;20025;-56
2022/02/06 09:22:45;;;;;;;1.75;0.30;;;24.00;36.10;;;;;;5020682;28;20337;-65
2022/02/06 09:25:14;;;;;;;2.35;1.05;;;24.10;36.10;;;;;;5015216;28;20433;-54
2022/02/06 09:27:45;;;;;;;3.33;0.90;;;24.10;36.10;;;;;;5030972;28;20040;-62
2022/02/06 09:30:21;;;;;;;4.97;2.10;;;24.20;36.30;;;;;;5018951;28;20096;-62
2022/02/06 09:35:18;;;;;;;4.38;2.15;;;24.30;36.70;;;;;;5017650;28;20048;-61
2022/02/06 09:37:45;;;;;;;5.05;2.53;;;24.40;37.00;;;;;;5018111;28;20158;-57
2022/02/06 09:40:15;;;;;;;7.35;3.13;;;24.40;37.10;;;;;;5020053;28;20092;-59
2022/02/06 09:42:50;;;;;;;5.60;2.78;;;24.50;37.20;;;;;;5034567;28;20099;-59
2022/02/06 09:45:16;;;;;;;6.25;2.47;;;24.60;37.40;;;;;;5033445;28;20025;-59
2022/02/06 09:47:49;;;;;;;5.28;2.13;;;24.60;37.30;;;;;;5010935;28;20033;-61
2022/02/06 09:50:17;;;;;;;3.97;2.03;;;24.60;37.30;;;;;;5018208;28;20460;-59
2022/02/06 09:52:47;;;;;;;5.57;2.10;;;24.60;37.20;;;;;;5030675;28;20028;-61
2022/02/06 09:55:19;;;;;;;3.83;1.77;;;24.60;37.10;;;;;;5027326;28;20073;-59
2022/02/06 09:58:14;;;;;;;3.42;1.75;;;24.60;37.10;;;;;;5033159;28;20417;-64
2022/02/06 10:00:44;;;;;;;2.80;1.70;;;24.60;37.10;;;;;;5044416;28;20324;-62
2022/02/06 10:03:15;;;;;;;5.57;2.20;;;24.60;37.20;;;;;;5049754;28;20065;-64
2022/02/06 10:05:45;;;;;;;4.35;2.05;;;24.60;37.30;;;;;;5039516;28;20033;-62
2022/02/06 10:08:31;;;;;;;4.72;2.35;;;24.60;37.30;;;;;;5042239;28;20009;-57
2022/02/06 10:11:22;;;;;;;6.60;2.97;;;24.60;37.40;;;;;;5049510;28;20078;-64
2022/02/06 10:13:49;;;;;;;6.93;3.30;;;24.70;37.70;;;;;;5018927;28;20029;-60
2022/02/06 10:16:20;;;;;;;7.85;3.78;;;24.70;37.90;;;;;;5028371;28;20038;-62
2022/02/06 10:18:52;;;;;;;10.07;3.30;;;24.60;38.10;;;;;;5039629;28;20043;-60
2022/02/06 10:21:29;;;;;;;7.47;3.83;;;24.60;38.30;;;;;;5000211;28;20283;-61
2022/02/06 10:24:15;;;;;;;7.30;3.50;;;24.70;38.60;;;;;;5015019;28;20044;-64
2022/02/06 10:29:38;;;;;;;7.80;3.72;;;24.60;38.90;;;;;;5041659;28;20025;-60
2022/02/06 10:32:05;;;;;;;9.73;4.25;;;24.60;39.00;;;;;;5026477;28;20052;-62
2022/02/06 10:34:37;;;;;;;7.15;3.33;;;24.60;39.00;;;;;;5043357;28;20017;-63
2022/02/06 10:37:16;;;;;;;4.85;2.72;;;24.60;38.90;;;;;;5033407;28;20582;-61
2022/02/06 10:40:07;;;;;;;5.47;2.53;;;24.70;38.70;;;;;;5043899;28;20378;-61
2022/02/06 10:42:41;;;;;;;4.57;2.10;;;24.60;38.40;;;;;;5043190;28;20041;-61
2022/02/06 10:45:29;;;;;;;4.18;1.98;;;24.60;38.20;;;;;;5040030;28;20040;-63
2022/02/06 10:47:56;;;;;;;3.15;1.85;;;24.60;38.10;;;;;;5020055;28;20026;-62
2022/02/06 10:50:30;;;;;;;3.55;2.20;;;24.60;38.10;;;;;;5045785;28;20444;-58
2022/02/06 10:53:14;;;;;;;4.63;2.40;;;24.60;37.90;;;;;;5036865;28;20092;-57
2022/02/06 10:55:54;;;;;;;3.40;1.73;;;24.60;37.80;;;;;;5048234;28;20033;-58
2022/02/06 10:58:32;;;;;;;3.58;1.60;;;24.60;38.30;;;;;;5036478;28;20516;-58
2022/02/06 11:01:06;;;;;;;4.93;2.10;;;24.60;37.60;;;;;;5042639;28;20024;-54
2022/02/06 11:03:38;;;;;;;2.53;1.60;;;24.60;37.60;;;;;;5019677;28;20449;-58
2022/02/06 11:06:32;;;;;;;3.53;1.70;;;24.60;37.50;;;;;;5038735;28;20090;-58
2022/02/06 11:08:58;;;;;;;3.65;1.80;;;24.60;37.30;;;;;;5019297;28;20053;-58
2022/02/06 11:11:33;;;;;;;2.88;1.33;;;24.50;37.20;;;;;;5042741;28;20143;-58
2022/02/06 11:14:13;;;;;;;3.45;1.30;;;24.50;37.10;;;;;;5024357;28;20043;-57
2022/02/06 11:16:49;;;;;;;2.00;1.10;;;24.40;37.00;;;;;;5033629;28;20025;-59
2022/02/06 11:19:18;;;;;;;4.32;1.77;;;24.40;37.00;;;;;;5035318;28;20136;-56
2022/02/06 11:21:45;;;;;;;2.00;1.10;;;24.30;36.90;;;;;;5041443;28;20083;-60
2022/02/06 11:24:21;;;;;;;2.55;1.33;;;24.30;36.90;;;;;;5034706;28;20033;-58
2022/02/06 11:26:48;;;;;;;2.70;1.40;;;24.30;36.80;;;;;;5044882;28;20032;-57
2022/02/06 11:29:16;;;;;;;5.25;1.40;;;24.20;36.90;;;;;;5046717;28;20013;-59
2022/02/06 11:31:43;;;;;;;2.30;1.25;;;24.20;36.80;;;;;;5014033;28;20334;-59
2022/02/06 11:34:13;;;;;;;2.38;1.17;;;24.20;37.50;;;;;;5009130;28;20022;-60
2022/02/06 11:45:33;;;;;;;1.73;0.82;;;24.10;36.80;;;;;;5041615;28;20030;-57
2022/02/06 11:48:08;;;;;;;1.63;0.80;;;24.00;36.80;;;;;;5020149;28;20053;-59
2022/02/06 11:50:37;;;;;;;1.30;0.85;;;24.00;36.80;;;;;;5025817;28;20368;-58
2022/02/06 11:53:06;;;;;;;1.75;0.93;;;24.00;36.80;;;;;;5041623;28;20036;-60
2022/02/06 11:55:42;;;;;;;1.58;0.90;;;24.00;36.80;;;;;;5042802;28;20029;-59
2022/02/06 11:58:26;;;;;;;2.08;0.80;;;23.90;36.70;;;;;;5036130;28;20121;-59
2022/02/06 12:01:26;;;;;;;1.53;0.67;;;24.00;36.70;;;;;;5043230;28;20030;-57
2022/02/06 12:03:56;;;;;;;1.10;0.68;;;23.90;36.60;;;;;;5007394;28;20041;-60
2022/02/06 12:06:25;;;;;;;1.42;0.70;;;23.90;36.60;;;;;;5044817;28;20081;-58
2022/02/06 12:09:03;;;;;;;1.40;0.85;;;23.90;36.50;;;;;;5033818;28;20021;-59
2022/02/06 12:11:36;;;;;;;1.77;0.95;;;23.90;36.40;;;;;;5045200;28;20025;-59
2022/02/06 12:14:11;;;;;;;1.80;0.80;;;23.90;36.30;;;;;;5043765;28;20021;-55
2022/02/06 12:16:43;;;;;;;2.35;0.90;;;23.90;36.30;;;;;;5038922;28;20021;-58
2022/02/06 12:19:31;;;;;;;2.10;1.00;;;23.90;36.30;;;;;;5038782;28;20029;-57
2022/02/06 12:22:17;;;;;;;0.85;0.60;;;23.90;36.20;;;;;;5037953;28;20029;-59
2022/02/06 12:24:43;;;;;;;1.38;0.70;;;23.90;36.20;;;;;;5041775;28;20033;-54
2022/02/06 12:27:35;;;;;;;1.38;0.77;;;23.90;36.20;;;;;;5038544;28;20084;-53
2022/02/06 12:30:07;;;;;;;1.52;0.70;;;24.00;36.10;;;;;;5038036;28;20110;-51
2022/02/06 12:32:35;;;;;;;1.40;0.65;;;24.00;36.10;;;;;;5043840;28;20029;-56
2022/02/06 12:37:53;;;;;;;1.15;0.80;;;24.00;36.00;;;;;;5044259;28;20063;-62
2022/02/06 12:40:25;;;;;;;1.20;0.63;;;24.00;36.00;;;;;;5039761;28;20100;-59
2022/02/06 12:42:59;;;;;;;1.67;0.70;;;24.00;36.10;;;;;;5045142;28;20140;-61
2022/02/06 12:45:26;;;;;;;;;;;24.10;36.20;;;;;;5039723;28;20029;-59
2022/02/06 12:47:58;;;;;;;1.95;0.52;;;24.00;36.10;;;;;;5039665;28;19927;-60
2022/02/06 12:50:31;;;;;;;0.80;0.57;;;24.00;36.20;;;;;;5044378;28;20039;-59
2022/02/06 12:53:01;;;;;;;1.92;0.70;;;24.00;36.10;;;;;;5024905;28;20049;-59
2022/02/06 12:55:35;;;;;;;1.65;0.52;;;24.00;36.20;;;;;;5048167;28;20020;-53
2022/02/06 12:58:02;;;;;;;0.95;0.45;;;24.10;36.20;;;;;;5048039;28;20140;-57
2022/02/06 13:00:44;;;;;;;1.20;0.65;;;24.10;36.20;;;;;;5041701;28;20108;-59
2022/02/06 13:03:21;;;;;;;1.17;0.52;;;24.10;36.10;;;;;;5030946;28;20056;-57
2022/02/06 13:05:50;;;;;;;2.42;0.60;;;24.10;36.10;;;;;;5038714;28;20104;-62
2022/02/06 13:08:18;;;;;;;1.13;0.60;;;24.00;36.10;;;;;;5039062;28;20046;-56
2022/02/06 13:11:01;;;;;;;1.17;0.70;;;24.00;36.20;;;;;;5037145;28;20462;-63
2022/02/06 13:13:38;;;;;;;0.75;0.40;;;24.00;36.20;;;;;;5043943;28;20101;-59
2022/02/06 13:16:19;;;;;;;0.95;0.50;;;24.00;36.40;;;;;;5040719;28;20077;-60
2022/02/06 13:26:52;;;;;;;1.70;0.63;;;24.10;36.40;;;;;;5044593;28;20021;-61
2022/02/06 13:29:34;;;;;;;1.65;0.70;;;24.10;36.40;;;;;;5042766;28;20039;-60
2022/02/06 13:32:18;;;;;;;1.45;0.50;;;24.20;36.40;;;;;;5027191;28;20456;-62
2022/02/06 13:35:04;;;;;;;1.08;0.60;;;24.10;36.30;;;;;;5025940;28;20029;-62
2022/02/06 13:37:42;;;;;;;0.98;0.60;;;24.20;36.30;;;;;;5041277;28;20470;-60
2022/02/06 13:40:15;;;;;;;0.80;0.45;;;24.10;36.30;;;;;;5042959;28;20063;-58
2022/02/06 13:43:01;;;;;;;0.93;0.47;;;24.10;36.20;;;;;;5045964;28;20135;-62
2022/02/06 13:45:29;;;;;;;0.75;0.40;;;24.10;36.10;;;;;;5042430;28;20038;-59
2022/02/06 13:47:57;;;;;;;1.25;0.50;;;24.10;36.10;;;;;;5039371;28;20032;-61
2022/02/06 13:50:25;;;;;;;0.77;0.70;;;24.10;36.10;;;;;;5044780;28;20032;-61
2022/02/06 13:53:17;;;;;;;1.52;0.50;;;24.10;36.00;;;;;;5042343;28;20436;-59
2022/02/06 13:56:11;;;;;;;1.25;0.52;;;24.00;35.90;;;;;;5045258;28;20424;-56
2022/02/06 13:58:40;;;;;;;;;;;24.00;35.80;;;;;;5039897;28;20037;-61
2022/02/06 14:01:08;;;;;;;0.63;0.30;;;24.00;35.90;;;;;;5037560;28;19915;-61
2022/02/06 14:03:52;;;;;;;0.60;0.35;;;24.00;36.00;;;;;;5041780;28;20506;-62
2022/02/06 14:06:21;;;;;;;;;;;23.90;35.80;;;;;;5041424;28;20032;-58
2022/02/06 14:09:08;;;;;;;0.68;0.38;;;23.90;35.90;;;;;;5046528;28;20418;-58
2022/02/06 14:11:35;;;;;;;1.60;0.50;;;23.90;35.80;;;;;;5043151;28;20031;-61
2022/02/06 14:14:26;;;;;;;1.55;0.47;;;23.90;35.80;;;;;;5040650;28;20037;-59
2022/02/06 14:16:58;;;;;;;0.47;0.32;;;23.90;35.80;;;;;;5041336;28;20025;-60
2022/02/06 14:19:47;;;;;;;0.43;0.28;;;24.00;35.90;;;;;;5042134;28;20048;-59
2022/02/06 14:22:36;;;;;;;0.68;0.43;;;24.00;35.80;;;;;;5041917;28;20108;-58
2022/02/06 14:25:12;;;;;;;0.80;0.50;;;24.00;35.80;;;;;;5022396;28;20029;-53
2022/02/06 14:27:45;;;;;;;1.15;0.60;;;24.00;35.80;;;;;;5050490;28;20086;-55
2022/02/06 14:30:14;;;;;;;0.80;0.30;;;24.00;35.70;;;;;;5038066;28;20030;-57
2022/02/06 14:33:08;;;;;;;0.40;0.30;;;24.00;35.70;;;;;;5024130;28;20356;-57
2022/02/06 14:35:37;;;;;;;1.35;0.50;;;24.10;35.70;;;;;;5040063;28;20025;-51
2022/02/06 14:38:05;;;;;;;0.95;0.40;;;24.10;35.70;;;;;;5043505;28;20115;-54
2022/02/06 14:41:06;;;;;;;0.93;0.55;;;24.10;35.60;;;;;;5041054;28;20092;-60
2022/02/06 14:43:40;;;;;;;1.77;0.47;;;24.10;35.60;;;;;;5043316;28;20025;-59
2022/02/06 14:46:08;;;;;;;1.73;0.52;;;24.10;35.60;;;;;;5022310;28;20095;-58
2022/02/06 14:48:34;;;;;;;1.25;0.40;;;24.20;35.60;;;;;;5041016;28;20039;-59
2022/02/06 14:51:02;;;;;;;1.25;0.55;;;24.20;35.40;;;;;;5028679;28;20025;-59
2022/02/06 14:53:29;;;;;;;0.80;0.52;;;24.20;35.30;;;;;;5024736;28;20495;-60
2022/02/06 14:55:56;;;;;;;0.88;0.43;;;24.20;35.20;;;;;;5033518;28;20033;-61
2022/02/06 14:58:28;;;;;;;1.33;0.63;;;24.20;35.10;;;;;;5035102;28;20080;-58
2022/02/06 15:00:54;;;;;;;1.27;0.63;;;24.30;35.10;;;;;;5036846;28;20109;-58
2022/02/06 15:03:21;;;;;;;0.93;0.40;;;24.20;35.00;;;;;;5044950;28;20453;-59
2022/02/06 15:05:49;;;;;;;1.20;0.50;;;24.20;34.90;;;;;;5016708;28;20021;-59
2022/02/06 15:08:16;;;;;;;0.43;0.20;;;24.30;34.90;;;;;;5039233;28;20040;-59
2022/02/06 15:10:42;;;;;;;0.63;0.38;;;24.30;34.90;;;;;;5040527;28;20021;-61
2022/02/06 15:13:10;;;;;;;0.77;0.40;;;24.30;34.80;;;;;;5043660;28;20483;-57
2022/02/06 15:15:45;;;;;;;0.50;0.32;;;24.30;34.70;;;;;;5040782;28;20033;-58
2022/02/06 15:20:55;;;;;;;1.23;0.50;;;24.30;34.60;;;;;;5041582;28;20325;-61
2022/02/06 15:23:27;;;;;;;1.05;0.30;;;24.30;34.50;;;;;;5045601;28;20033;-57
2022/02/06 15:25:56;;;;;;;1.80;0.50;;;24.30;34.40;;;;;;5034138;28;20024;-58
2022/02/06 15:28:25;;;;;;;0.93;0.40;;;24.30;34.40;;;;;;5044823;28;20022;-62
2022/02/06 15:30:52;;;;;;;0.60;0.30;;;24.30;34.30;;;;;;5039586;28;20040;-60
2022/02/06 15:33:18;;;;;;;1.17;0.40;;;24.40;34.30;;;;;;5038902;28;20037;-60
2022/02/06 15:35:48;;;;;;;0.70;0.40;;;24.40;34.20;;;;;;5036568;28;20447;-58
2022/02/06 15:38:16;;;;;;;0.85;0.40;;;24.40;34.10;;;;;;5016648;28;20125;-57
2022/02/06 15:40:43;;;;;;;1.05;0.52;;;24.30;34.10;;;;;;5043481;28;20456;-57
2022/02/06 15:43:10;;;;;;;0.93;0.40;;;24.40;34.00;;;;;;5043542;28;20041;-59